»·PEaware :: BTQ813 KPHX-KSOW

BTQ813 :: KPHX-KSOW

FLIGHT INFORMATION

Flight Status: Arrived
Operator: Unknown
More flights by this operator :: More flights under this callsign
Pilot: Armando C. (16967)
Aircraft: PILATUS PC-12 EAGLE
(PC12)
More flights by this aircraft type
Origin: KPHX Phoenix Sky Harbor Intl
United States
Destination: KSOW Show Low Mun
United States
More flights between these airports :: More routes between these airports
Route: +PXR V190 HOZER
File this flight plan on PilotEdge
Remarks: PBN / D2 DOF / 180512 REG / N645PC OPR / BTQ PER / B RMK / TCAS SIMBRIEF
Altitude:
(Current/Filed)
13,000ft
Speed:
(Current/Filed)
262kts
Departed: 12-May-18 10:41 AM
Arrived: 12-May-18 11:23 AM
Distance/Time
Traveled:
111nm/0:41
Distance/Time
To Go:
Arrived

Flight Plot

Page will automatically refresh every two minutes.

Flight plan parsing failed; only flown route is shown


Map Options




Map Legend


Flown Route
Filed Route
Departure Airport
Arrival Airport
Navaid (VOR, NDB)
Fix

Horizontal Profiles

Position Reports

Time Latitude Longitude Heading Altitude Ground
Speed
12-May-18 10:02 33.434119 -112.008314 288 1138ft 0kts
12-May-18 10:03 33.434119 -112.008314 288 1138ft 0kts
12-May-18 10:04 33.434119 -112.008314 288 1138ft 0kts
12-May-18 10:05 33.434119 -112.008314 288 1138ft 0kts
12-May-18 10:06 33.434119 -112.008314 288 1138ft 0kts
12-May-18 10:07 33.434119 -112.008314 288 1138ft 0kts
12-May-18 10:08 33.434119 -112.008314 288 1138ft 0kts
12-May-18 10:09 33.434119 -112.008314 288 1138ft 0kts
12-May-18 10:13 33.434119 -112.008314 288 1138ft 0kts
12-May-18 10:14 33.434119 -112.008314 288 1138ft 0kts
12-May-18 10:15 33.434119 -112.008314 288 1138ft 0kts
12-May-18 10:16 33.434119 -112.008314 288 1138ft 0kts
12-May-18 10:17 33.434119 -112.008314 288 1138ft 0kts
12-May-18 10:18 33.434119 -112.008314 288 1138ft 0kts
12-May-18 10:19 33.434119 -112.008314 288 1138ft 0kts
12-May-18 10:20 33.434119 -112.008314 288 1138ft 0kts
12-May-18 10:21 33.434119 -112.008314 288 1138ft 0kts
12-May-18 10:22 33.434119 -112.008314 288 1138ft 0kts
12-May-18 10:23 33.434119 -112.008314 288 1138ft 0kts
12-May-18 10:24 33.434119 -112.008314 288 1138ft 0kts
12-May-18 10:25 33.434119 -112.008314 288 1138ft 0kts
12-May-18 10:26 33.434119 -112.008314 288 1138ft 0kts
12-May-18 10:27 33.434119 -112.008314 288 1138ft 0kts
12-May-18 10:28 33.434119 -112.008314 288 1138ft 0kts
12-May-18 10:29 33.434119 -112.008314 288 1138ft 0kts
12-May-18 10:30 33.434119 -112.008314 288 1138ft 0kts
12-May-18 10:31 33.434119 -112.008314 288 1138ft 0kts
12-May-18 10:32 33.434204 -112.008219 92 1138ft 0kts
12-May-18 10:33 33.434204 -112.008219 92 1138ft 0kts
12-May-18 10:34 33.434204 -112.008219 92 1138ft 0kts
12-May-18 10:35 33.432872 -112.006925 83 1138ft 13kts
12-May-18 10:36 33.432956 -112.001423 86 1138ft 18kts
12-May-18 10:37 33.432882 -111.998194 89 1138ft 11kts
12-May-18 10:38 33.432281 -111.993377 177 1138ft 18kts
12-May-18 10:39 33.431978 -111.993387 184 1138ft 0kts
12-May-18 10:40 33.431263 -111.993607 237 1138ft 8kts
12-May-18 10:41 33.431040 -112.009592 271 1179ft 123kts
12-May-18 10:42 33.435160 -112.051193 306 2730ft 127kts
12-May-18 10:43 33.455273 -112.083717 310 4160ft 131kts
12-May-18 10:44 33.477599 -112.119349 309 5519ft 140kts
12-May-18 10:45 33.500952 -112.156320 310 6901ft 143kts
12-May-18 10:46 33.524623 -112.193625 310 8284ft 142kts
12-May-18 10:47 33.549977 -112.218614 18 9558ft 131kts
12-May-18 10:48 33.560907 -112.189920 80 10669ft 126kts
12-May-18 10:49 33.565508 -112.150202 80 11963ft 119kts
12-May-18 10:50 33.570449 -112.108445 79 12968ft 150kts
12-May-18 10:51 33.577753 -112.048961 78 13097ft 216kts
12-May-18 10:52 33.587029 -111.974384 79 13092ft 237kts
12-May-18 10:53 33.596847 -111.896320 79 13090ft 239kts
12-May-18 10:54 33.606742 -111.817579 79 13091ft 240kts
12-May-18 10:55 33.616697 -111.738491 79 13091ft 240kts
12-May-18 10:56 33.626681 -111.659549 79 13090ft 239kts
12-May-18 10:57 33.636739 -111.581061 79 13091ft 240kts
12-May-18 10:58 33.646864 -111.501975 79 13091ft 239kts
12-May-18 10:59 33.656817 -111.423600 79 13091ft 239kts
12-May-18 11:00 33.666819 -111.345496 79 13090ft 239kts
12-May-18 11:01 33.681432 -111.268225 63 13092ft 237kts
12-May-18 11:02 33.712139 -111.197955 64 13016ft 241kts
12-May-18 11:03 33.739110 -111.123881 65 12916ft 241kts
12-May-18 11:04 33.765391 -111.050212 65 12917ft 239kts
12-May-18 11:05 33.791431 -110.976993 65 12916ft 238kts
12-May-18 11:06 33.817489 -110.903602 65 12917ft 238kts
12-May-18 11:07 33.843399 -110.830356 65 12917ft 238kts
12-May-18 11:08 33.869309 -110.756970 65 12917ft 238kts
12-May-18 11:09 33.895163 -110.683569 65 12915ft 238kts
12-May-18 11:10 33.921017 -110.610142 65 12917ft 238kts
12-May-18 11:11 33.947994 -110.534156 74 13008ft 259kts
12-May-18 11:12 33.990662 -110.456851 56 12443ft 297kts
12-May-18 11:13 34.041271 -110.374290 57 11500ft 311kts
12-May-18 11:14 34.092377 -110.290633 57 10544ft 312kts
12-May-18 11:15 34.142406 -110.208932 57 10193ft 293kts
12-May-18 11:16 34.190462 -110.130886 57 9708ft 291kts
12-May-18 11:17 34.228110 -110.047535 69 8660ft 279kts
12-May-18 11:18 34.256487 -109.963702 71 7966ft 237kts
12-May-18 11:19 34.293390 -109.918064 27 7911ft 173kts
12-May-18 11:20 34.306099 -109.944096 240 7822ft 99kts
12-May-18 11:21 34.289238 -109.969264 220 7337ft 95kts
12-May-18 11:22 34.272423 -109.992075 218 6585ft 86kts
12-May-18 11:23 34.263911 -110.003062 222 6419ft 13kts
12-May-18 11:24 34.263949 -110.004654 308 6419ft 0kts
12-May-18 11:25 34.264918 -110.006011 215 6419ft 8kts
12-May-18 11:26 34.264427 -110.007961 349 6419ft 0kts
12-May-18 11:27 34.264426 -110.007961 348 6419ft 0kts
12-May-18 11:28 34.264426 -110.007961 348 6419ft 0kts
12-May-18 11:29 34.264427 -110.007958 340 6419ft 0kts

Navigation Log

Ident Type
Flight plan parsing failed, navigation log unavailable